sensor_id;sensor_type;location;lat;lon;timestamp;pressure;altitude;pressure_sealevel;temperature;humidity
65019;BME280;66069;51.164;-114.452;2024-03-17T00:00:21;88838.22;;;16.22;51.86
65019;BME280;66069;51.164;-114.452;2024-03-17T00:02:47;88864.00;;;16.36;52.20
65019;BME280;66069;51.164;-114.452;2024-03-17T00:05:14;88859.84;;;16.35;52.09
65019;BME280;66069;51.164;-114.452;2024-03-17T00:07:41;88863.22;;;16.32;52.05
65019;BME280;66069;51.164;-114.452;2024-03-17T00:10:07;88853.38;;;16.29;52.10
65019;BME280;66069;51.164;-114.452;2024-03-17T00:12:34;88864.72;;;16.33;52.05
65019;BME280;66069;51.164;-114.452;2024-03-17T00:15:00;88869.63;;;16.31;52.06
65019;BME280;66069;51.164;-114.452;2024-03-17T00:17:27;88842.34;;;16.20;52.12
65019;BME280;66069;51.164;-114.452;2024-03-17T00:19:53;88857.53;;;16.30;51.95
65019;BME280;66069;51.164;-114.452;2024-03-17T00:22:19;88867.00;;;16.31;52.28
65019;BME280;66069;51.164;-114.452;2024-03-17T00:24:45;88860.56;;;16.28;52.34
65019;BME280;66069;51.164;-114.452;2024-03-17T00:27:12;88871.16;;;16.28;52.08
65019;BME280;66069;51.164;-114.452;2024-03-17T00:29:39;88876.06;;;16.33;52.44
65019;BME280;66069;51.164;-114.452;2024-03-17T00:32:06;88873.78;;;16.28;52.05
65019;BME280;66069;51.164;-114.452;2024-03-17T00:34:32;88876.44;;;16.32;52.16
65019;BME280;66069;51.164;-114.452;2024-03-17T00:36:59;88870.78;;;16.30;52.30
65019;BME280;66069;51.164;-114.452;2024-03-17T00:39:28;88879.50;;;16.34;52.09
65019;BME280;66069;51.164;-114.452;2024-03-17T00:41:55;88884.00;;;16.33;52.05
65019;BME280;66069;51.164;-114.452;2024-03-17T00:44:21;88873.78;;;16.28;51.87
65019;BME280;66069;51.164;-114.452;2024-03-17T00:46:47;88879.84;;;16.32;51.91
65019;BME280;66069;51.164;-114.452;2024-03-17T00:49:14;88873.81;;;16.32;52.03
65019;BME280;66069;51.164;-114.452;2024-03-17T00:51:40;88874.94;;;16.31;51.78
65019;BME280;66069;51.164;-114.452;2024-03-17T00:54:06;88878.34;;;16.28;51.73
65019;BME280;66069;51.164;-114.452;2024-03-17T00:56:32;88873.78;;;16.28;51.67
65019;BME280;66069;51.164;-114.452;2024-03-17T00:58:58;88861.63;;;16.17;51.68
65019;BME280;66069;51.164;-114.452;2024-03-17T01:01:24;88877.19;;;16.29;51.63
65019;BME280;66069;51.164;-114.452;2024-03-17T01:03:51;88877.56;;;16.27;51.80
65019;BME280;66069;51.164;-114.452;2024-03-17T01:06:17;88873.03;;;16.28;51.53
65019;BME280;66069;51.164;-114.452;2024-03-17T01:08:43;88875.28;;;16.26;51.71
65019;BME280;66069;51.164;-114.452;2024-03-17T01:11:17;88888.91;;;16.28;51.68
65019;BME280;66069;51.164;-114.452;2024-03-17T01:13:45;88882.47;;;16.25;51.54
65019;BME280;66069;51.164;-114.452;2024-03-17T01:16:13;88889.25;;;16.26;51.55
65019;BME280;66069;51.164;-114.452;2024-03-17T01:18:39;88880.19;;;16.24;51.54
65019;BME280;66069;51.164;-114.452;2024-03-17T01:21:06;88883.59;;;16.24;51.43
65019;BME280;66069;51.164;-114.452;2024-03-17T01:23:33;88878.66;;;16.23;51.42
65019;BME280;66069;51.164;-114.452;2024-03-17T01:25:59;88887.00;;;16.21;51.40
65019;BME280;66069;51.164;-114.452;2024-03-17T01:28:25;88894.94;;;16.21;51.29
65019;BME280;66069;51.164;-114.452;2024-03-17T01:30:52;88886.56;;;16.19;51.48
65019;BME280;66069;51.164;-114.452;2024-03-17T01:33:18;88893.75;;;16.19;51.24
65019;BME280;66069;51.164;-114.452;2024-03-17T01:35:45;88886.19;;;16.17;51.21
65019;BME280;66069;51.164;-114.452;2024-03-17T01:38:11;88879.34;;;16.09;51.18
65019;BME280;66069;51.164;-114.452;2024-03-17T01:40:37;88883.91;;;16.15;51.23
65019;BME280;66069;51.164;-114.452;2024-03-17T01:43:04;88891.44;;;16.13;51.48
65019;BME280;66069;51.164;-114.452;2024-03-17T01:45:31;88888.03;;;16.09;51.28
65019;BME280;66069;51.164;-114.452;2024-03-17T01:48:00;88897.50;;;16.14;51.17
65019;BME280;66069;51.164;-114.452;2024-03-17T01:50:32;88894.47;;;16.12;51.08
65019;BME280;66069;51.164;-114.452;2024-03-17T01:53:01;88890.69;;;16.13;51.21
65019;BME280;66069;51.164;-114.452;2024-03-17T01:55:37;88887.28;;;16.09;51.14
65019;BME280;66069;51.164;-114.452;2024-03-17T01:58:05;88901.66;;;16.11;51.13
65019;BME280;66069;51.164;-114.452;2024-03-17T02:00:36;88897.50;;;16.10;51.12
65019;BME280;66069;51.164;-114.452;2024-03-17T02:03:07;88906.56;;;16.09;51.22
65019;BME280;66069;51.164;-114.452;2024-03-17T02:05:36;88900.13;;;16.10;51.14
65019;BME280;66069;51.164;-114.452;2024-03-17T02:08:06;88903.88;;;16.06;51.00
65019;BME280;66069;51.164;-114.452;2024-03-17T02:10:33;88906.16;;;16.07;50.96
65019;BME280;66069;51.164;-114.452;2024-03-17T02:13:00;88901.97;;;16.03;51.04
65019;BME280;66069;51.164;-114.452;2024-03-17T02:15:27;88905.00;;;16.05;50.97
65019;BME280;66069;51.164;-114.452;2024-03-17T02:17:53;88890.88;;;15.86;51.06
65019;BME280;66069;51.164;-114.452;2024-03-17T02:20:19;88913.66;;;16.02;50.85
65019;BME280;66069;51.164;-114.452;2024-03-17T02:22:48;88914.41;;;16.02;50.93
65019;BME280;66069;51.164;-114.452;2024-03-17T02:25:14;88918.94;;;15.98;51.01
65019;BME280;66069;51.164;-114.452;2024-03-17T02:27:40;88920.06;;;16.01;50.95
65019;BME280;66069;51.164;-114.452;2024-03-17T02:30:07;88923.47;;;15.98;51.12
65019;BME280;66069;51.164;-114.452;2024-03-17T02:32:36;88925.69;;;15.96;51.01
65019;BME280;66069;51.164;-114.452;2024-03-17T02:35:03;88896.50;;;15.81;50.97
65019;BME280;66069;51.164;-114.452;2024-03-17T02:37:30;88927.25;;;15.97;50.92
65019;BME280;66069;51.164;-114.452;2024-03-17T02:39:57;88924.56;;;15.93;50.93
65019;BME280;66069;51.164;-114.452;2024-03-17T02:42:24;88928.34;;;15.92;51.00
65019;BME280;66069;51.164;-114.452;2024-03-17T02:44:50;88926.06;;;15.94;51.03
65019;BME280;66069;51.164;-114.452;2024-03-17T02:47:16;88926.44;;;15.93;50.97
65019;BME280;66069;51.164;-114.452;2024-03-17T02:49:42;88924.94;;;15.92;50.90
65019;BME280;66069;51.164;-114.452;2024-03-17T02:52:10;88934.00;;;15.91;50.84
65019;BME280;66069;51.164;-114.452;2024-03-17T02:54:38;88926.41;;;15.89;50.83
65019;BME280;66069;51.164;-114.452;2024-03-17T02:57:06;88921.47;;;15.87;50.85
65019;BME280;66069;51.164;-114.452;2024-03-17T02:59:33;88928.28;;;15.85;50.90
65019;BME280;66069;51.164;-114.452;2024-03-17T03:01:59;88935.84;;;15.86;50.86
65019;BME280;66069;51.164;-114.452;2024-03-17T03:04:27;88931.25;;;15.83;50.88
65019;BME280;66069;51.164;-114.452;2024-03-17T03:06:53;88936.56;;;15.83;50.74
65019;BME280;66069;51.164;-114.452;2024-03-17T03:09:20;88935.03;;;15.82;50.90
65019;BME280;66069;51.164;-114.452;2024-03-17T03:11:51;88933.53;;;15.81;50.76
65019;BME280;66069;51.164;-114.452;2024-03-17T03:14:17;88933.13;;;15.79;50.54
65019;BME280;66069;51.164;-114.452;2024-03-17T03:16:43;88938.78;;;15.78;50.78
65019;BME280;66069;51.164;-114.452;2024-03-17T03:19:10;88936.91;;;15.78;50.70
65019;BME280;66069;51.164;-114.452;2024-03-17T03:21:36;88940.31;;;15.79;50.60
65019;BME280;66069;51.164;-114.452;2024-03-17T03:24:02;88939.91;;;15.77;50.57
65019;BME280;66069;51.164;-114.452;2024-03-17T03:26:28;88948.25;;;15.79;50.67
65019;BME280;66069;51.164;-114.452;2024-03-17T03:28:54;88954.66;;;15.78;50.60
65019;BME280;66069;51.164;-114.452;2024-03-17T03:31:21;88952.34;;;15.76;50.17
65019;BME280;66069;51.164;-114.452;2024-03-17T03:33:47;88944.03;;;15.74;50.67
65019;BME280;66069;51.164;-114.452;2024-03-17T03:36:15;88951.97;;;15.74;50.46
65019;BME280;66069;51.164;-114.452;2024-03-17T03:38:44;88962.19;;;15.76;50.39
65019;BME280;66069;51.164;-114.452;2024-03-17T03:41:15;88961.41;;;15.75;50.42
65019;BME280;66069;51.164;-114.452;2024-03-17T03:43:42;88965.56;;;15.73;50.26
65019;BME280;66069;51.164;-114.452;2024-03-17T03:46:08;88953.09;;;15.73;50.24
65019;BME280;66069;51.164;-114.452;2024-03-17T03:48:35;88953.03;;;15.66;50.32
65019;BME280;66069;51.164;-114.452;2024-03-17T03:51:05;88942.75;;;15.61;50.50
65019;BME280;66069;51.164;-114.452;2024-03-17T03:53:33;88957.56;;;15.66;50.32
65019;BME280;66069;51.164;-114.452;2024-03-17T03:56:02;88968.53;;;15.71;50.38
65019;BME280;66069;51.164;-114.452;2024-03-17T03:58:38;88968.16;;;15.69;50.31
65019;BME280;66069;51.164;-114.452;2024-03-17T04:01:08;88961.72;;;15.67;50.30
65019;BME280;66069;51.164;-114.452;2024-03-17T04:03:37;88979.09;;;15.68;50.13
65019;BME280;66069;51.164;-114.452;2024-03-17T04:06:06;88976.06;;;15.66;50.18
65019;BME280;66069;51.164;-114.452;2024-03-17T04:08:33;88982.13;;;15.66;50.05
65019;BME280;66069;51.164;-114.452;2024-03-17T04:11:00;88987.41;;;15.66;50.44
65019;BME280;66069;51.164;-114.452;2024-03-17T04:13:27;88983.59;;;15.64;50.11
65019;BME280;66069;51.164;-114.452;2024-03-17T04:15:59;88973.78;;;15.64;50.14
65019;BME280;66069;51.164;-114.452;2024-03-17T04:18:26;88978.66;;;15.62;50.28
65019;BME280;66069;51.164;-114.452;2024-03-17T04:20:56;88989.25;;;15.62;50.20
65019;BME280;66069;51.164;-114.452;2024-03-17T04:23:23;88983.88;;;15.58;50.21
65019;BME280;66069;51.164;-114.452;2024-03-17T04:25:53;88992.97;;;15.61;50.22
65019;BME280;66069;51.164;-114.452;2024-03-17T04:28:19;88988.06;;;15.59;50.05
65019;BME280;66069;51.164;-114.452;2024-03-17T04:30:46;88985.75;;;15.54;49.92
65019;BME280;66069;51.164;-114.452;2024-03-17T04:33:12;88997.88;;;15.59;50.07
65019;BME280;66069;51.164;-114.452;2024-03-17T04:35:40;88988.41;;;15.58;50.00
65019;BME280;66069;51.164;-114.452;2024-03-17T04:38:07;88998.22;;;15.57;50.05
65019;BME280;66069;51.164;-114.452;2024-03-17T04:40:33;88996.72;;;15.56;50.00
65019;BME280;66069;51.164;-114.452;2024-03-17T04:43:00;88995.19;;;15.55;50.16
65019;BME280;66069;51.164;-114.452;2024-03-17T04:45:26;88997.84;;;15.55;50.11
65019;BME280;66069;51.164;-114.452;2024-03-17T04:47:53;88998.19;;;15.54;50.12
65019;BME280;66069;51.164;-114.452;2024-03-17T04:50:19;89002.72;;;15.53;49.94
65019;BME280;66069;51.164;-114.452;2024-03-17T04:52:47;88990.19;;;15.47;50.03
65019;BME280;66069;51.164;-114.452;2024-03-17T04:55:13;89002.31;;;15.51;50.06
65019;BME280;66069;51.164;-114.452;2024-03-17T04:57:39;89004.94;;;15.51;49.71
65019;BME280;66069;51.164;-114.452;2024-03-17T05:00:06;88997.34;;;15.46;49.90
65019;BME280;66069;51.164;-114.452;2024-03-17T05:02:33;89001.91;;;15.49;49.87
65019;BME280;66069;51.164;-114.452;2024-03-17T05:04:59;88998.47;;;15.45;49.69
65019;BME280;66069;51.164;-114.452;2024-03-17T05:07:25;89006.06;;;15.47;49.82
65019;BME280;66069;51.164;-114.452;2024-03-17T05:09:51;89002.28;;;15.48;49.67
65019;BME280;66069;51.164;-114.452;2024-03-17T05:12:18;88999.56;;;15.41;49.99
65019;BME280;66069;51.164;-114.452;2024-03-17T05:14:44;88990.84;;;15.40;49.86
65019;BME280;66069;51.164;-114.452;2024-03-17T05:17:10;89008.69;;;15.47;49.65
65019;BME280;66069;51.164;-114.452;2024-03-17T05:19:36;88999.97;;;15.46;49.81
65019;BME280;66069;51.164;-114.452;2024-03-17T05:22:02;89007.16;;;15.46;49.63
65019;BME280;66069;51.164;-114.452;2024-03-17T05:24:29;88999.19;;;15.42;49.79
65019;BME280;66069;51.164;-114.452;2024-03-17T05:26:55;88995.75;;;15.38;49.68
65019;BME280;66069;51.164;-114.452;2024-03-17T05:29:21;89014.28;;;15.42;49.97
65019;BME280;66069;51.164;-114.452;2024-03-17T05:31:49;89006.41;;;15.45;49.56
65019;BME280;66069;51.164;-114.452;2024-03-17T05:34:15;88999.16;;;15.39;49.81
65019;BME280;66069;51.164;-114.452;2024-03-17T05:36:42;89006.38;;;15.42;49.72
65019;BME280;66069;51.164;-114.452;2024-03-17T05:39:08;89012.78;;;15.41;49.71
65019;BME280;66069;51.164;-114.452;2024-03-17T05:41:34;89005.16;;;15.35;49.53
65019;BME280;66069;51.164;-114.452;2024-03-17T05:44:01;89007.84;;;15.39;49.62
65019;BME280;66069;51.164;-114.452;2024-03-17T05:46:29;89007.81;;;15.35;49.64
65019;BME280;66069;51.164;-114.452;2024-03-17T05:48:55;89016.53;;;15.40;49.51
65019;BME280;66069;51.164;-114.452;2024-03-17T05:51:22;89017.25;;;15.37;49.83
65019;BME280;66069;51.164;-114.452;2024-03-17T05:53:51;89018.00;;;15.37;49.65
65019;BME280;66069;51.164;-114.452;2024-03-17T05:56:17;89027.06;;;15.36;49.52
65019;BME280;66069;51.164;-114.452;2024-03-17T05:58:43;89012.66;;;15.33;49.54
65019;BME280;66069;51.164;-114.452;2024-03-17T06:01:09;89018.38;;;15.35;49.75
65019;BME280;66069;51.164;-114.452;2024-03-17T06:03:37;89011.56;;;15.34;49.62
65019;BME280;66069;51.164;-114.452;2024-03-17T06:06:04;88986.09;;;15.19;49.61
65019;BME280;66069;51.164;-114.452;2024-03-17T06:08:33;89000.50;;;15.25;49.72
65019;BME280;66069;51.164;-114.452;2024-03-17T06:10:59;89015.69;;;15.32;49.57
65019;BME280;66069;51.164;-114.452;2024-03-17T06:13:28;89008.06;;;15.27;49.54
65019;BME280;66069;51.164;-114.452;2024-03-17T06:15:55;89010.00;;;15.30;49.57
65019;BME280;66069;51.164;-114.452;2024-03-17T06:18:26;88998.25;;;15.27;49.59
65019;BME280;66069;51.164;-114.452;2024-03-17T06:20:53;89003.19;;;15.29;49.67
65019;BME280;66069;51.164;-114.452;2024-03-17T06:23:19;89002.78;;;15.27;49.57
65019;BME280;66069;51.164;-114.452;2024-03-17T06:25:47;88992.13;;;15.20;49.66
65019;BME280;66069;51.164;-114.452;2024-03-17T06:28:15;88999.38;;;15.26;49.43
65019;BME280;66069;51.164;-114.452;2024-03-17T06:30:46;89000.13;;;15.27;49.54
65019;BME280;66069;51.164;-114.452;2024-03-17T06:33:17;89002.03;;;15.26;49.54
65019;BME280;66069;51.164;-114.452;2024-03-17T06:35:47;88998.63;;;15.26;49.62
65019;BME280;66069;51.164;-114.452;2024-03-17T06:38:14;88994.84;;;15.23;49.32
65019;BME280;66069;51.164;-114.452;2024-03-17T06:40:41;88993.66;;;15.21;49.44
65019;BME280;66069;51.164;-114.452;2024-03-17T06:43:07;88994.00;;;15.19;49.48
65019;BME280;66069;51.164;-114.452;2024-03-17T06:45:34;88992.88;;;15.20;49.34
65019;BME280;66069;51.164;-114.452;2024-03-17T06:48:00;88996.28;;;15.21;49.41
65019;BME280;66069;51.164;-114.452;2024-03-17T06:50:26;88996.25;;;15.17;49.49
65019;BME280;66069;51.164;-114.452;2024-03-17T06:52:52;89004.59;;;15.19;49.52
65019;BME280;66069;51.164;-114.452;2024-03-17T06:55:19;88995.91;;;15.19;49.28
65019;BME280;66069;51.164;-114.452;2024-03-17T06:57:47;89000.41;;;15.18;49.36
65019;BME280;66069;51.164;-114.452;2024-03-17T07:00:14;88994.75;;;15.16;49.25
65019;BME280;66069;51.164;-114.452;2024-03-17T07:02:45;88982.09;;;15.02;49.53
65019;BME280;66069;51.164;-114.452;2024-03-17T07:05:12;88996.25;;;15.17;49.32
65019;BME280;66069;51.164;-114.452;2024-03-17T07:07:42;88995.50;;;15.17;49.72
65019;BME280;66069;51.164;-114.452;2024-03-17T07:10:10;88996.25;;;15.17;49.39
65019;BME280;66069;51.164;-114.452;2024-03-17T07:12:39;88997.34;;;15.13;49.31
65019;BME280;66069;51.164;-114.452;2024-03-17T07:15:06;88998.47;;;15.15;49.30
65019;BME280;66069;51.164;-114.452;2024-03-17T07:17:33;88992.44;;;15.15;49.40
65019;BME280;66069;51.164;-114.452;2024-03-17T07:20:00;88987.16;;;15.15;49.50
65019;BME280;66069;51.164;-114.452;2024-03-17T07:22:26;88974.63;;;15.08;49.53
65019;BME280;66069;51.164;-114.452;2024-03-17T07:24:53;88995.06;;;15.11;49.44
65019;BME280;66069;51.164;-114.452;2024-03-17T07:27:29;88986.31;;;15.07;49.31
65019;BME280;66069;51.164;-114.452;2024-03-17T07:29:57;88989.78;;;15.11;49.37
65019;BME280;66069;51.164;-114.452;2024-03-17T07:32:23;88968.47;;;14.97;49.50
65019;BME280;66069;51.164;-114.452;2024-03-17T07:34:50;88984.44;;;15.07;49.35
65019;BME280;66069;51.164;-114.452;2024-03-17T07:37:16;88991.22;;;15.08;49.17
65019;BME280;66069;51.164;-114.452;2024-03-17T07:39:42;88961.19;;;14.90;49.34
65019;BME280;66069;51.164;-114.452;2024-03-17T07:42:09;88990.84;;;15.06;49.31
65019;BME280;66069;51.164;-114.452;2024-03-17T07:44:38;88982.16;;;15.06;49.24
65019;BME280;66069;51.164;-114.452;2024-03-17T07:47:05;88983.28;;;15.05;49.48
65019;BME280;66069;51.164;-114.452;2024-03-17T07:49:31;88979.88;;;15.04;49.44
65019;BME280;66069;51.164;-114.452;2024-03-17T07:51:58;88991.97;;;15.05;49.30
65019;BME280;66069;51.164;-114.452;2024-03-17T07:54:25;88976.47;;;15.04;49.62
65019;BME280;66069;51.164;-114.452;2024-03-17T07:56:52;88979.13;;;15.04;49.61
65019;BME280;66069;51.164;-114.452;2024-03-17T07:59:18;88977.19;;;15.01;49.27
65019;BME280;66069;51.164;-114.452;2024-03-17T08:01:45;88974.19;;;15.02;49.45
65019;BME280;66069;51.164;-114.452;2024-03-17T08:04:11;88977.19;;;15.01;49.30
65019;BME280;66069;51.164;-114.452;2024-03-17T08:06:39;88980.94;;;15.00;49.43
65019;BME280;66069;51.164;-114.452;2024-03-17T08:09:07;88977.19;;;15.01;49.17
65019;BME280;66069;51.164;-114.452;2024-03-17T08:11:34;88977.09;;;14.94;49.58
65019;BME280;66069;51.164;-114.452;2024-03-17T08:14:01;88964.94;;;14.86;49.40
65019;BME280;66069;51.164;-114.452;2024-03-17T08:16:27;88974.16;;;14.99;49.38
65019;BME280;66069;51.164;-114.452;2024-03-17T08:18:55;88974.84;;;14.96;49.40
65019;BME280;66069;51.164;-114.452;2024-03-17T08:21:21;88963.91;;;14.94;49.42
65019;BME280;66069;51.164;-114.452;2024-03-17T08:23:48;88959.75;;;14.96;49.22
65019;BME280;66069;51.164;-114.452;2024-03-17T08:26:14;88974.84;;;14.96;49.08
65019;BME280;66069;51.164;-114.452;2024-03-17T08:28:40;88960.88;;;14.95;49.26
65019;BME280;66069;51.164;-114.452;2024-03-17T08:31:07;88970.69;;;14.95;49.34
65019;BME280;66069;51.164;-114.452;2024-03-17T08:33:33;88958.22;;;14.92;49.41
65019;BME280;66069;51.164;-114.452;2024-03-17T08:36:09;88958.63;;;14.94;49.08
65019;BME280;66069;51.164;-114.452;2024-03-17T08:38:36;88968.41;;;14.93;49.04
65019;BME280;66069;51.164;-114.452;2024-03-17T08:41:04;88958.22;;;14.92;49.14
65019;BME280;66069;51.164;-114.452;2024-03-17T08:43:31;88960.09;;;14.91;49.23
65019;BME280;66069;51.164;-114.452;2024-03-17T08:46:15;88940.66;;;14.76;49.16
65019;BME280;66069;51.164;-114.452;2024-03-17T08:48:41;88960.09;;;14.91;49.28
65019;BME280;66069;51.164;-114.452;2024-03-17T08:51:08;88939.59;;;14.81;49.29
65019;BME280;66069;51.164;-114.452;2024-03-17T08:53:36;88955.16;;;14.90;49.51
65019;BME280;66069;51.164;-114.452;2024-03-17T08:56:05;88951.75;;;14.89;49.19
65019;BME280;66069;51.164;-114.452;2024-03-17T08:58:32;88950.25;;;14.88;49.29
65019;BME280;66069;51.164;-114.452;2024-03-17T09:00:58;88951.72;;;14.86;49.10
65019;BME280;66069;51.164;-114.452;2024-03-17T09:03:28;88948.72;;;14.87;49.26
65019;BME280;66069;51.164;-114.452;2024-03-17T09:05:54;88941.94;;;14.86;49.21
65019;BME280;66069;51.164;-114.452;2024-03-17T09:08:22;88947.97;;;14.87;49.22
65019;BME280;66069;51.164;-114.452;2024-03-17T09:10:50;88939.06;;;14.68;49.48
65019;BME280;66069;51.164;-114.452;2024-03-17T09:13:21;88947.56;;;14.85;49.24
65019;BME280;66069;51.164;-114.452;2024-03-17T09:15:53;88947.16;;;14.82;49.38
65019;BME280;66069;51.164;-114.452;2024-03-17T09:18:19;88946.03;;;14.84;49.36
65019;BME280;66069;51.164;-114.452;2024-03-17T09:20:46;88948.28;;;14.81;49.03
65019;BME280;66069;51.164;-114.452;2024-03-17T09:23:13;88936.81;;;14.70;49.22
65019;BME280;66069;51.164;-114.452;2024-03-17T09:25:39;88942.94;;;14.78;49.51
65019;BME280;66069;51.164;-114.452;2024-03-17T09:28:06;88955.44;;;14.81;49.12
65019;BME280;66069;51.164;-114.452;2024-03-17T09:30:32;88946.00;;;14.80;49.29
65019;BME280;66069;51.164;-114.452;2024-03-17T09:32:59;88937.66;;;14.78;49.45
65019;BME280;66069;51.164;-114.452;2024-03-17T09:35:25;88940.31;;;14.78;49.39
65019;BME280;66069;51.164;-114.452;2024-03-17T09:37:51;88935.38;;;14.76;49.26
65019;BME280;66069;51.164;-114.452;2024-03-17T09:40:18;88928.97;;;14.77;49.30
65019;BME280;66069;51.164;-114.452;2024-03-17T09:42:44;88925.56;;;14.73;49.26
65019;BME280;66069;51.164;-114.452;2024-03-17T09:45:10;88909.56;;;14.63;49.29
65019;BME280;66069;51.164;-114.452;2024-03-17T09:47:36;88930.84;;;14.73;49.39
65019;BME280;66069;51.164;-114.452;2024-03-17T09:50:03;88927.06;;;14.74;49.12
65019;BME280;66069;51.164;-114.452;2024-03-17T09:52:31;88927.81;;;14.75;49.39
65019;BME280;66069;51.164;-114.452;2024-03-17T09:55:06;88922.16;;;14.73;49.11
65019;BME280;66069;51.164;-114.452;2024-03-17T09:57:36;88911.94;;;14.71;49.42
65019;BME280;66069;51.164;-114.452;2024-03-17T10:00:20;88912.28;;;14.70;49.12
65019;BME280;66069;51.164;-114.452;2024-03-17T10:02:47;88912.69;;;14.72;49.43
65019;BME280;66069;51.164;-114.452;2024-03-17T10:05:22;88903.59;;;14.66;49.04
65019;BME280;66069;51.164;-114.452;2024-03-17T10:07:49;88907.78;;;14.70;49.40
65019;BME280;66069;51.164;-114.452;2024-03-17T10:10:17;88898.66;;;14.64;49.03
65019;BME280;66069;51.164;-114.452;2024-03-17T10:12:52;88905.50;;;14.69;49.11
65019;BME280;66069;51.164;-114.452;2024-03-17T10:15:19;88910.78;;;14.69;49.17
65019;BME280;66069;51.164;-114.452;2024-03-17T10:17:46;88899.47;;;14.68;49.49
65019;BME280;66069;51.164;-114.452;2024-03-17T10:20:20;88893.72;;;14.63;49.09
65019;BME280;66069;51.164;-114.452;2024-03-17T10:25:29;88894.56;;;14.67;49.01
65019;BME280;66069;51.164;-114.452;2024-03-17T10:27:56;88896.00;;;14.64;49.11
65019;BME280;66069;51.164;-114.452;2024-03-17T10:30:24;88885.06;;;14.62;49.23
65019;BME280;66069;51.164;-114.452;2024-03-17T10:32:59;88889.59;;;14.65;49.09
65019;BME280;66069;51.164;-114.452;2024-03-17T10:35:33;88888.84;;;14.65;49.25
65019;BME280;66069;51.164;-114.452;2024-03-17T10:38:02;88885.44;;;14.64;48.92
65019;BME280;66069;51.164;-114.452;2024-03-17T10:40:31;88874.13;;;14.64;49.07
65019;BME280;66069;51.164;-114.452;2024-03-17T10:43:01;88878.66;;;14.63;49.08
65019;BME280;66069;51.164;-114.452;2024-03-17T10:45:28;88878.66;;;14.63;49.17
65019;BME280;66069;51.164;-114.452;2024-03-17T10:48:02;88871.09;;;14.62;49.29
65019;BME280;66069;51.164;-114.452;2024-03-17T10:50:36;88863.88;;;14.59;49.26
65019;BME280;66069;51.164;-114.452;2024-03-17T10:53:07;88868.06;;;14.60;49.33
65019;BME280;66069;51.164;-114.452;2024-03-17T10:55:46;88866.19;;;14.60;48.95
65019;BME280;66069;51.164;-114.452;2024-03-17T11:00:46;88856.69;;;14.56;49.44
65019;BME280;66069;51.164;-114.452;2024-03-17T11:03:13;88860.09;;;14.56;49.14
65019;BME280;66069;51.164;-114.452;2024-03-17T11:05:41;88862.38;;;14.58;49.09
65019;BME280;66069;51.164;-114.452;2024-03-17T11:08:15;88862.38;;;14.58;49.31
65019;BME280;66069;51.164;-114.452;2024-03-17T11:10:49;88862.34;;;14.54;49.36
65019;BME280;66069;51.164;-114.452;2024-03-17T11:13:28;88864.97;;;14.54;48.99
65019;BME280;66069;51.164;-114.452;2024-03-17T11:15:56;88866.88;;;14.53;49.22
65019;BME280;66069;51.164;-114.452;2024-03-17T11:18:39;88869.50;;;14.53;49.14
65019;BME280;66069;51.164;-114.452;2024-03-17T11:21:07;88867.56;;;14.50;48.92
65019;BME280;66069;51.164;-114.452;2024-03-17T11:24:06;88865.31;;;14.52;49.01
65019;BME280;66069;51.164;-114.452;2024-03-17T11:26:34;88863.81;;;14.51;49.41
65019;BME280;66069;51.164;-114.452;2024-03-17T11:29:03;88863.41;;;14.49;49.27
65019;BME280;66069;51.164;-114.452;2024-03-17T11:31:36;88862.28;;;14.50;49.24
65019;BME280;66069;51.164;-114.452;2024-03-17T11:34:29;88856.19;;;14.46;49.33
65019;BME280;66069;51.164;-114.452;2024-03-17T11:36:57;88853.97;;;14.48;49.25
65019;BME280;66069;51.164;-114.452;2024-03-17T11:39:50;88850.97;;;14.50;49.21
65019;BME280;66069;51.164;-114.452;2024-03-17T11:42:18;88860.00;;;14.49;49.07
65019;BME280;66069;51.164;-114.452;2024-03-17T11:45:00;88858.13;;;14.49;49.29
65019;BME280;66069;51.164;-114.452;2024-03-17T11:47:37;88859.66;;;14.50;49.59
65019;BME280;66069;51.164;-114.452;2024-03-17T11:50:05;88853.63;;;14.50;49.59
65019;BME280;66069;51.164;-114.452;2024-03-17T11:52:33;88855.53;;;14.53;50.03
65019;BME280;66069;51.164;-114.452;2024-03-17T11:54:59;88850.25;;;14.53;50.68
65019;BME280;66069;51.164;-114.452;2024-03-17T11:57:26;88860.84;;;14.57;50.77
65019;BME280;66069;51.164;-114.452;2024-03-17T11:59:54;88856.34;;;14.57;50.84
65019;BME280;66069;51.164;-114.452;2024-03-17T12:02:25;88862.88;;;14.67;51.33
65019;BME280;66069;51.164;-114.452;2024-03-17T12:04:53;88868.59;;;14.72;51.62
65019;BME280;66069;51.164;-114.452;2024-03-17T12:07:22;88862.97;;;14.77;51.91
65019;BME280;66069;51.164;-114.452;2024-03-17T12:09:50;88858.91;;;14.84;52.13
65019;BME280;66069;51.164;-114.452;2024-03-17T12:12:21;88855.56;;;14.90;52.36
65019;BME280;66069;51.164;-114.452;2024-03-17T12:14:50;88859.41;;;14.96;52.25
65019;BME280;66069;51.164;-114.452;2024-03-17T12:17:25;88856.44;;;15.01;52.64
65019;BME280;66069;51.164;-114.452;2024-03-17T12:19:52;88857.66;;;15.07;52.99
65019;BME280;66069;51.164;-114.452;2024-03-17T12:22:24;88855.44;;;15.13;52.72
65019;BME280;66069;51.164;-114.452;2024-03-17T12:24:54;88852.47;;;15.18;53.02
65019;BME280;66069;51.164;-114.452;2024-03-17T12:27:22;88849.91;;;15.25;52.86
65019;BME280;66069;51.164;-114.452;2024-03-17T12:29:51;88846.94;;;15.30;53.14
65019;BME280;66069;51.164;-114.452;2024-03-17T12:32:19;88853.03;;;15.34;53.19
65019;BME280;66069;51.164;-114.452;2024-03-17T12:34:51;88853.44;;;15.40;53.17
65019;BME280;66069;51.164;-114.452;2024-03-17T12:37:22;88836.91;;;15.47;53.32
65019;BME280;66069;51.164;-114.452;2024-03-17T12:39:49;88862.66;;;15.57;53.42